METAR Data
IDs: Format: Raw Decoded Include TAF

Data at: 0936 UTC 18 Jan 2019

PAJZ 180925Z AUTO 35008KT 9SM FEW007 M06/M09 A2976 RMK AO2 FZRANO $
PAJZ 180856Z AUTO 02013KT 9SM FEW070 M06/M09 A2975 RMK AO2 SLP082 T10611089 51005 FZRANO $
PAJZ 180756Z AUTO 02010KT 9SM CLR M07/M09 A2975 RMK AO2 SLP082 T10671094 410221067 FZRANO $
PAJZ 180656Z AUTO 02008KT 9SM CLR M06/M08 A2974 RMK AO2 SLP080 T10561083 FZRANO $
PAJZ 180556Z AUTO 02004KT 9SM CLR M06/M08 A2974 RMK AO2 SLP077 T10561083 11028 21061 58003 FZRANO $
PAJZ 180456Z AUTO 33006KT 9SM FEW120 M05/M08 A2974 RMK AO2 SLP079 T10501078 FZRANO $
PAJZ 180356Z AUTO 01012KT 9SM FEW033 M04/M07 A2974 RMK AO2 SLP078 T10441072 FZRANO $
PAJZ 180256Z AUTO VRB03KT 9SM CLR M05/M07 A2974 RMK AO2 SLP079 T10501067 53007 FZRANO $
PAJZ 180156Z AUTO 29005KT 8SM SCT034 M04/M06 A2973 RMK AO2 SLP076 T10391061 FZRANO $
PAJZ 180056Z AUTO 30006KT 8SM BKN110 M03/M06 A2973 RMK AO2 SLP074 T10331056 FZRANO $
PAJZ 172356Z AUTO 32006KT 8SM OVC090 M03/M06 A2972 RMK AO2 SLP073 60000 T10281056 11028 21044 58004 FZRANO $
PAJZ 172256Z AUTO 31006KT 8SM OVC090 M03/M06 A2973 RMK AO2 SLP074 T10281056 FZRANO $
PAJZ 172156Z AUTO 32006KT 9SM SCT060 SCT070 M03/M06 A2973 RMK AO2 UPB2057E2059SNE2057B2059E11 SLP076 P0000 T10331056 FZRANO $
PAJZ 172056Z AUTO 31007KT 5SM -SN BR SCT045 BKN055 OVC070 M03/M05 A2973 RMK AO2 SNB27 SLP075 P0000 60000 T10331050 51011 FZRANO $
PAJZ 171956Z AUTO 29006KT 8SM OVC070 M04/M06 A2973 RMK AO2 SLP074 T10391056 FZRANO $
PAJZ 171856Z AUTO 28003KT 9SM OVC070 M04/M06 A2972 RMK AO2 SLP070 T10391056 FZRANO $
PAJZ 171756Z AUTO 31004KT 9SM OVC070 M04/M06 A2970 RMK AO2 SLP065 T10441056 11033 21056 51002 FZRANO $
PAJZ 171723Z AUTO 29004KT 9SM FEW019 M04/M06 A2970 RMK AO2 FZRANO $
PAJZ 171656Z AUTO 30004KT 9SM OVC019 M04/M05 A2970 RMK AO2 SLP064 T10391050 FZRANO $
PAJZ 171556Z AUTO 30005KT 9SM OVC017 M03/M05 A2970 RMK AO2 SLP064 T10331050 FZRANO $
PAJZ 171456Z AUTO 32005KT 9SM OVC017 M03/M05 A2970 RMK AO2 SLP063 T10331050 50004 FZRANO $
PAJZ 171356Z AUTO 29004KT 9SM OVC017 M04/M06 A2970 RMK AO2 SLP063 T10441056 FZRANO $
PAJZ 171256Z AUTO 30003KT 9SM BKN017 M05/M06 A2969 RMK AO2 SLP062 T10501061 FZRANO $
PAJZ 171156Z AUTO VRB03KT 10SM OVC017 M03/M03 A2968 RMK AO2 SLP060 T10331033 11022 21056 51008 FZRANO $
PAJZ 171056Z AUTO 29003KT 9SM BKN017 M06/M07 A2968 RMK AO2 SLP058 T10561067 FZRANO $
PAJZ 170956Z AUTO 31005KT 9SM OVC017 M06/M07 A2967 RMK AO2 SLP054 T10561072 FZRANO $
PAJZ 170856Z AUTO 29007KT 9SM BKN017 M03/M05 A2966 RMK AO2 SLP051 T10331050 51018 FZRANO $
PAJZ 170756Z AUTO 29004KT 9SM OVC017 M04/M05 A2964 RMK AO2 SLP045 T10391050 410281089 FZRANO $
PAJZ 170656Z AUTO 04005KT 9SM BKN017 M03/M03 A2963 RMK AO2 SLP039 T10281033 FZRANO $
PAJZ 170641Z AUTO 04004KT 10SM BKN017 M03/M04 A2962 RMK AO2 FZRANO $
PAJZ 170556Z AUTO 04006KT 9SM SCT015 M03/M04 A2961 RMK AO2 SLP033 T10331044 11028 21061 53007 FZRANO $
PAJZ 170456Z AUTO 33004KT 9SM BKN015 M04/M07 A2959 RMK AO2 SLP027 T10441067 FZRANO $
PAJZ 170356Z AUTO 34004KT 9SM BKN019 OVC065 M05/M07 A2958 RMK AO2 SLP024 T10501072 FZRANO $
PAJZ 170351Z AUTO 27008KT 9SM BKN019 BKN055 OVC070 M06/M08 A2958 RMK AO2 FZRANO $
PAJZ 170256Z AUTO 32005KT 9SM SCT120 M06/M08 A2958 RMK AO2 SLP023 T10561083 53007 FZRANO $
PAJZ 170156Z AUTO 02005KT 8SM FEW031 M03/M06 A2957 RMK AO2 SLP022 T10281056 FZRANO $
PAJZ 170056Z AUTO 03008KT 8SM OVC031 M04/M07 A2956 RMK AO2 SLP016 T10391072 FZRANO $
PAJZ 162356Z AUTO 04009KT 8SM OVC039 M03/M06 A2956 RMK AO2 SLP017 60000 T10281061 11028 21078 57007 FZRANO $
PAJZ 162256Z AUTO 30003KT 8SM BKN065 OVC085 M05/M07 A2957 RMK AO2 SLP018 T10501072 FZRANO $
PAJZ 162156Z AUTO 31005KT 8SM SCT070 BKN085 OVC110 M06/M09 A2957 RMK AO2 SNB03E27 SLP021 P0000 T10611094 FZRANO $